sensor_id;sensor_type;location;lat;lon;timestamp;P1;durP1;ratioP1;P2;durP2;ratioP2
67063;SDS011;58476;48.072;11.970;2022-09-24T00:00:44;3.55;;;2.40;;
67063;SDS011;58476;48.072;11.970;2022-09-24T00:03:10;3.40;;;2.60;;
67063;SDS011;58476;48.072;11.970;2022-09-24T00:05:37;3.25;;;2.38;;
67063;SDS011;58476;48.072;11.970;2022-09-24T00:08:02;3.60;;;2.60;;
67063;SDS011;58476;48.072;11.970;2022-09-24T00:10:28;4.18;;;2.70;;
67063;SDS011;58476;48.072;11.970;2022-09-24T00:12:53;5.50;;;2.70;;
67063;SDS011;58476;48.072;11.970;2022-09-24T00:15:18;4.63;;;2.75;;
67063;SDS011;58476;48.072;11.970;2022-09-24T00:17:44;3.30;;;2.50;;
67063;SDS011;58476;48.072;11.970;2022-09-24T00:20:09;3.17;;;2.45;;
67063;SDS011;58476;48.072;11.970;2022-09-24T00:22:34;3.92;;;2.58;;
67063;SDS011;58476;48.072;11.970;2022-09-24T00:25:00;4.32;;;2.58;;
67063;SDS011;58476;48.072;11.970;2022-09-24T00:27:26;4.32;;;2.60;;
67063;SDS011;58476;48.072;11.970;2022-09-24T00:29:51;3.45;;;2.70;;
67063;SDS011;58476;48.072;11.970;2022-09-24T00:32:17;2.90;;;2.40;;
67063;SDS011;58476;48.072;11.970;2022-09-24T00:34:42;2.78;;;2.25;;
67063;SDS011;58476;48.072;11.970;2022-09-24T00:37:07;4.18;;;2.92;;
67063;SDS011;58476;48.072;11.970;2022-09-24T00:39:33;4.25;;;2.70;;
67063;SDS011;58476;48.072;11.970;2022-09-24T00:41:58;3.28;;;2.50;;
67063;SDS011;58476;48.072;11.970;2022-09-24T00:49:39;3.53;;;2.35;;
67063;SDS011;58476;48.072;11.970;2022-09-24T00:52:05;2.90;;;2.20;;
67063;SDS011;58476;48.072;11.970;2022-09-24T00:54:31;3.95;;;2.45;;
67063;SDS011;58476;48.072;11.970;2022-09-24T00:56:57;4.80;;;2.40;;
67063;SDS011;58476;48.072;11.970;2022-09-24T00:59:23;2.95;;;2.42;;
67063;SDS011;58476;48.072;11.970;2022-09-24T01:01:49;3.60;;;2.42;;
67063;SDS011;58476;48.072;11.970;2022-09-24T01:04:17;3.63;;;2.60;;
67063;SDS011;58476;48.072;11.970;2022-09-24T01:06:43;2.75;;;2.28;;
67063;SDS011;58476;48.072;11.970;2022-09-24T01:09:09;2.67;;;2.30;;
67063;SDS011;58476;48.072;11.970;2022-09-24T01:11:40;2.63;;;2.28;;
67063;SDS011;58476;48.072;11.970;2022-09-24T01:14:20;2.72;;;2.30;;
67063;SDS011;58476;48.072;11.970;2022-09-24T01:17:28;4.28;;;3.17;;
67063;SDS011;58476;48.072;11.970;2022-09-24T01:23:46;3.75;;;2.50;;
67063;SDS011;58476;48.072;11.970;2022-09-24T01:31:28;3.38;;;2.30;;
67063;SDS011;58476;48.072;11.970;2022-09-24T01:33:58;3.65;;;2.28;;
67063;SDS011;58476;48.072;11.970;2022-09-24T01:36:26;3.10;;;2.10;;
67063;SDS011;58476;48.072;11.970;2022-09-24T01:38:53;3.45;;;2.22;;
67063;SDS011;58476;48.072;11.970;2022-09-24T01:41:19;2.92;;;2.10;;
67063;SDS011;58476;48.072;11.970;2022-09-24T01:43:46;3.35;;;2.42;;
67063;SDS011;58476;48.072;11.970;2022-09-24T01:46:12;3.28;;;2.40;;
67063;SDS011;58476;48.072;11.970;2022-09-24T01:48:39;3.15;;;2.22;;
67063;SDS011;58476;48.072;11.970;2022-09-24T01:54:20;2.90;;;2.20;;
67063;SDS011;58476;48.072;11.970;2022-09-24T01:56:56;2.88;;;2.00;;
67063;SDS011;58476;48.072;11.970;2022-09-24T01:59:39;2.33;;;2.13;;
67063;SDS011;58476;48.072;11.970;2022-09-24T02:02:11;3.90;;;2.13;;
67063;SDS011;58476;48.072;11.970;2022-09-24T02:04:43;2.45;;;1.98;;
67063;SDS011;58476;48.072;11.970;2022-09-24T02:07:13;5.40;;;2.00;;
67063;SDS011;58476;48.072;11.970;2022-09-24T02:09:44;2.47;;;2.08;;
67063;SDS011;58476;48.072;11.970;2022-09-24T02:14:41;3.03;;;2.17;;
67063;SDS011;58476;48.072;11.970;2022-09-24T02:17:11;2.97;;;1.90;;
67063;SDS011;58476;48.072;11.970;2022-09-24T02:19:38;2.63;;;2.00;;
67063;SDS011;58476;48.072;11.970;2022-09-24T02:22:06;2.22;;;2.00;;
67063;SDS011;58476;48.072;11.970;2022-09-24T02:27:13;3.25;;;2.28;;
67063;SDS011;58476;48.072;11.970;2022-09-24T02:29:39;2.95;;;2.13;;
67063;SDS011;58476;48.072;11.970;2022-09-24T02:32:05;2.60;;;2.05;;
67063;SDS011;58476;48.072;11.970;2022-09-24T02:34:37;2.33;;;2.03;;
67063;SDS011;58476;48.072;11.970;2022-09-24T02:37:09;3.08;;;2.08;;
67063;SDS011;58476;48.072;11.970;2022-09-24T02:39:36;2.08;;;1.88;;
67063;SDS011;58476;48.072;11.970;2022-09-24T02:42:03;3.58;;;2.00;;
67063;SDS011;58476;48.072;11.970;2022-09-24T02:44:30;4.70;;;2.22;;
67063;SDS011;58476;48.072;11.970;2022-09-24T02:46:55;4.70;;;2.08;;
67063;SDS011;58476;48.072;11.970;2022-09-24T02:49:21;2.42;;;2.10;;
67063;SDS011;58476;48.072;11.970;2022-09-24T02:51:46;3.38;;;2.00;;
67063;SDS011;58476;48.072;11.970;2022-09-24T02:54:12;3.78;;;2.20;;
67063;SDS011;58476;48.072;11.970;2022-09-24T02:56:37;4.32;;;2.22;;
67063;SDS011;58476;48.072;11.970;2022-09-24T02:59:03;2.28;;;2.08;;
67063;SDS011;58476;48.072;11.970;2022-09-24T03:01:29;2.58;;;2.10;;
67063;SDS011;58476;48.072;11.970;2022-09-24T03:03:55;2.47;;;2.05;;
67063;SDS011;58476;48.072;11.970;2022-09-24T03:06:21;2.30;;;1.90;;
67063;SDS011;58476;48.072;11.970;2022-09-24T03:08:46;2.70;;;1.88;;
67063;SDS011;58476;48.072;11.970;2022-09-24T03:11:12;2.67;;;2.00;;
67063;SDS011;58476;48.072;11.970;2022-09-24T03:13:38;1.98;;;1.75;;
67063;SDS011;58476;48.072;11.970;2022-09-24T03:16:04;2.78;;;1.70;;
67063;SDS011;58476;48.072;11.970;2022-09-24T03:18:30;3.22;;;1.98;;
67063;SDS011;58476;48.072;11.970;2022-09-24T03:20:57;4.10;;;2.10;;
67063;SDS011;58476;48.072;11.970;2022-09-24T03:23:27;4.03;;;2.08;;
67063;SDS011;58476;48.072;11.970;2022-09-24T03:25:53;2.42;;;1.90;;
67063;SDS011;58476;48.072;11.970;2022-09-24T03:28:18;2.20;;;1.90;;
67063;SDS011;58476;48.072;11.970;2022-09-24T03:30:44;2.58;;;1.83;;
67063;SDS011;58476;48.072;11.970;2022-09-24T03:33:09;3.03;;;2.05;;
67063;SDS011;58476;48.072;11.970;2022-09-24T03:35:35;2.05;;;1.85;;
67063;SDS011;58476;48.072;11.970;2022-09-24T03:38:00;4.05;;;2.30;;
67063;SDS011;58476;48.072;11.970;2022-09-24T03:40:25;2.70;;;1.90;;
67063;SDS011;58476;48.072;11.970;2022-09-24T03:42:50;2.47;;;2.08;;
67063;SDS011;58476;48.072;11.970;2022-09-24T03:45:16;2.67;;;2.00;;
67063;SDS011;58476;48.072;11.970;2022-09-24T03:47:42;2.35;;;1.80;;
67063;SDS011;58476;48.072;11.970;2022-09-24T03:50:07;3.83;;;2.00;;
67063;SDS011;58476;48.072;11.970;2022-09-24T03:52:32;2.63;;;2.00;;
67063;SDS011;58476;48.072;11.970;2022-09-24T03:54:58;2.33;;;2.00;;
67063;SDS011;58476;48.072;11.970;2022-09-24T03:57:23;2.45;;;1.92;;
67063;SDS011;58476;48.072;11.970;2022-09-24T03:59:48;2.80;;;1.95;;
67063;SDS011;58476;48.072;11.970;2022-09-24T04:02:14;2.00;;;1.80;;
67063;SDS011;58476;48.072;11.970;2022-09-24T04:04:39;2.78;;;2.15;;
67063;SDS011;58476;48.072;11.970;2022-09-24T04:07:04;5.47;;;1.95;;
67063;SDS011;58476;48.072;11.970;2022-09-24T04:09:30;2.13;;;1.80;;
67063;SDS011;58476;48.072;11.970;2022-09-24T04:11:55;2.47;;;2.00;;
67063;SDS011;58476;48.072;11.970;2022-09-24T04:14:21;2.70;;;2.15;;
67063;SDS011;58476;48.072;11.970;2022-09-24T04:16:46;3.30;;;2.20;;
67063;SDS011;58476;48.072;11.970;2022-09-24T04:19:12;3.33;;;1.80;;
67063;SDS011;58476;48.072;11.970;2022-09-24T04:21:38;4.78;;;2.20;;
67063;SDS011;58476;48.072;11.970;2022-09-24T04:24:03;2.75;;;2.05;;
67063;SDS011;58476;48.072;11.970;2022-09-24T04:26:29;4.03;;;1.90;;
67063;SDS011;58476;48.072;11.970;2022-09-24T04:28:54;2.83;;;1.90;;
67063;SDS011;58476;48.072;11.970;2022-09-24T04:31:20;2.50;;;2.05;;
67063;SDS011;58476;48.072;11.970;2022-09-24T04:33:45;2.85;;;2.08;;
67063;SDS011;58476;48.072;11.970;2022-09-24T04:36:10;3.80;;;1.80;;
67063;SDS011;58476;48.072;11.970;2022-09-24T04:38:36;1.92;;;1.73;;
67063;SDS011;58476;48.072;11.970;2022-09-24T04:41:07;3.70;;;1.90;;
67063;SDS011;58476;48.072;11.970;2022-09-24T04:43:33;3.35;;;1.80;;
67063;SDS011;58476;48.072;11.970;2022-09-24T04:45:59;3.45;;;1.90;;
67063;SDS011;58476;48.072;11.970;2022-09-24T04:48:24;4.28;;;1.90;;
67063;SDS011;58476;48.072;11.970;2022-09-24T04:50:50;2.00;;;1.80;;
67063;SDS011;58476;48.072;11.970;2022-09-24T04:53:15;2.83;;;1.90;;
67063;SDS011;58476;48.072;11.970;2022-09-24T04:55:40;2.30;;;1.90;;
67063;SDS011;58476;48.072;11.970;2022-09-24T04:58:06;3.17;;;1.85;;
67063;SDS011;58476;48.072;11.970;2022-09-24T05:00:31;2.60;;;1.80;;
67063;SDS011;58476;48.072;11.970;2022-09-24T05:02:57;2.90;;;1.90;;
67063;SDS011;58476;48.072;11.970;2022-09-24T05:05:23;3.15;;;1.88;;
67063;SDS011;58476;48.072;11.970;2022-09-24T05:07:49;2.90;;;1.77;;
67063;SDS011;58476;48.072;11.970;2022-09-24T05:10:14;2.63;;;1.98;;
67063;SDS011;58476;48.072;11.970;2022-09-24T05:12:40;6.03;;;2.00;;
67063;SDS011;58476;48.072;11.970;2022-09-24T05:15:05;1.98;;;1.77;;
67063;SDS011;58476;48.072;11.970;2022-09-24T05:17:31;3.38;;;2.10;;
67063;SDS011;58476;48.072;11.970;2022-09-24T05:19:56;5.20;;;2.00;;
67063;SDS011;58476;48.072;11.970;2022-09-24T05:22:22;4.80;;;1.85;;
67063;SDS011;58476;48.072;11.970;2022-09-24T05:24:48;5.80;;;2.00;;
67063;SDS011;58476;48.072;11.970;2022-09-24T05:27:13;2.50;;;1.85;;
67063;SDS011;58476;48.072;11.970;2022-09-24T05:29:40;3.20;;;1.85;;
67063;SDS011;58476;48.072;11.970;2022-09-24T05:32:07;5.78;;;1.98;;
67063;SDS011;58476;48.072;11.970;2022-09-24T05:34:34;4.13;;;1.70;;
67063;SDS011;58476;48.072;11.970;2022-09-24T05:37:00;2.28;;;1.90;;
67063;SDS011;58476;48.072;11.970;2022-09-24T05:39:26;3.95;;;2.00;;
67063;SDS011;58476;48.072;11.970;2022-09-24T05:41:53;5.57;;;2.28;;
67063;SDS011;58476;48.072;11.970;2022-09-24T05:44:19;10.43;;;2.35;;
67063;SDS011;58476;48.072;11.970;2022-09-24T05:46:44;6.68;;;2.20;;
67063;SDS011;58476;48.072;11.970;2022-09-24T05:49:10;4.47;;;1.85;;
67063;SDS011;58476;48.072;11.970;2022-09-24T05:51:35;8.82;;;2.67;;
67063;SDS011;58476;48.072;11.970;2022-09-24T05:54:00;3.97;;;2.10;;
67063;SDS011;58476;48.072;11.970;2022-09-24T05:56:26;7.80;;;2.03;;
67063;SDS011;58476;48.072;11.970;2022-09-24T05:58:51;6.80;;;2.20;;
67063;SDS011;58476;48.072;11.970;2022-09-24T06:01:16;3.88;;;2.10;;
67063;SDS011;58476;48.072;11.970;2022-09-24T06:03:42;6.32;;;2.78;;
67063;SDS011;58476;48.072;11.970;2022-09-24T06:06:07;5.18;;;2.10;;
67063;SDS011;58476;48.072;11.970;2022-09-24T06:08:32;9.13;;;2.40;;
67063;SDS011;58476;48.072;11.970;2022-09-24T06:11:02;3.67;;;2.08;;
67063;SDS011;58476;48.072;11.970;2022-09-24T06:13:31;6.55;;;2.17;;
67063;SDS011;58476;48.072;11.970;2022-09-24T06:16:03;13.55;;;3.08;;
67063;SDS011;58476;48.072;11.970;2022-09-24T06:18:32;11.77;;;3.80;;
67063;SDS011;58476;48.072;11.970;2022-09-24T06:21:01;12.93;;;3.55;;
67063;SDS011;58476;48.072;11.970;2022-09-24T06:23:28;11.60;;;3.33;;
67063;SDS011;58476;48.072;11.970;2022-09-24T06:25:54;9.73;;;2.42;;
67063;SDS011;58476;48.072;11.970;2022-09-24T06:28:19;10.70;;;2.80;;
67063;SDS011;58476;48.072;11.970;2022-09-24T06:30:45;11.35;;;2.60;;
67063;SDS011;58476;48.072;11.970;2022-09-24T06:33:10;15.57;;;4.57;;
67063;SDS011;58476;48.072;11.970;2022-09-24T06:35:38;10.25;;;2.90;;
67063;SDS011;58476;48.072;11.970;2022-09-24T06:38:05;8.65;;;2.88;;
67063;SDS011;58476;48.072;11.970;2022-09-24T06:40:32;13.55;;;3.10;;
67063;SDS011;58476;48.072;11.970;2022-09-24T06:42:58;8.75;;;3.15;;
67063;SDS011;58476;48.072;11.970;2022-09-24T06:45:24;14.85;;;2.70;;
67063;SDS011;58476;48.072;11.970;2022-09-24T06:47:53;7.55;;;2.92;;
67063;SDS011;58476;48.072;11.970;2022-09-24T06:50:19;8.52;;;2.85;;
67063;SDS011;58476;48.072;11.970;2022-09-24T06:52:45;17.92;;;4.90;;
67063;SDS011;58476;48.072;11.970;2022-09-24T06:55:10;7.25;;;2.70;;
67063;SDS011;58476;48.072;11.970;2022-09-24T06:57:35;7.95;;;2.83;;
67063;SDS011;58476;48.072;11.970;2022-09-24T07:00:01;6.55;;;2.60;;
67063;SDS011;58476;48.072;11.970;2022-09-24T07:02:26;17.10;;;4.80;;
67063;SDS011;58476;48.072;11.970;2022-09-24T07:04:51;17.95;;;5.22;;
67063;SDS011;58476;48.072;11.970;2022-09-24T07:07:17;15.18;;;3.15;;
67063;SDS011;58476;48.072;11.970;2022-09-24T07:09:42;14.60;;;4.43;;
67063;SDS011;58476;48.072;11.970;2022-09-24T07:12:07;10.52;;;3.10;;
67063;SDS011;58476;48.072;11.970;2022-09-24T07:14:33;13.45;;;3.88;;
67063;SDS011;58476;48.072;11.970;2022-09-24T07:16:59;15.52;;;3.90;;
67063;SDS011;58476;48.072;11.970;2022-09-24T07:19:25;13.82;;;3.80;;
67063;SDS011;58476;48.072;11.970;2022-09-24T07:21:50;9.68;;;2.95;;
67063;SDS011;58476;48.072;11.970;2022-09-24T07:24:16;11.52;;;3.25;;
67063;SDS011;58476;48.072;11.970;2022-09-24T07:26:41;13.98;;;3.50;;
67063;SDS011;58476;48.072;11.970;2022-09-24T07:29:06;12.95;;;3.88;;
67063;SDS011;58476;48.072;11.970;2022-09-24T07:31:31;9.85;;;4.07;;
67063;SDS011;58476;48.072;11.970;2022-09-24T07:33:57;9.02;;;3.40;;
67063;SDS011;58476;48.072;11.970;2022-09-24T07:36:22;8.07;;;3.53;;
67063;SDS011;58476;48.072;11.970;2022-09-24T07:38:47;12.18;;;3.35;;
67063;SDS011;58476;48.072;11.970;2022-09-24T07:41:13;8.70;;;3.70;;
67063;SDS011;58476;48.072;11.970;2022-09-24T07:43:38;12.88;;;3.53;;
67063;SDS011;58476;48.072;11.970;2022-09-24T07:46:03;9.38;;;3.20;;
67063;SDS011;58476;48.072;11.970;2022-09-24T07:48:29;9.60;;;3.20;;
67063;SDS011;58476;48.072;11.970;2022-09-24T07:50:54;15.50;;;3.20;;
67063;SDS011;58476;48.072;11.970;2022-09-24T07:53:19;13.43;;;3.88;;
67063;SDS011;58476;48.072;11.970;2022-09-24T07:55:44;11.88;;;3.05;;
67063;SDS011;58476;48.072;11.970;2022-09-24T07:58:10;8.68;;;3.28;;
67063;SDS011;58476;48.072;11.970;2022-09-24T08:00:37;5.75;;;2.63;;
67063;SDS011;58476;48.072;11.970;2022-09-24T08:03:02;7.40;;;3.22;;
67063;SDS011;58476;48.072;11.970;2022-09-24T08:05:28;6.45;;;2.85;;
67063;SDS011;58476;48.072;11.970;2022-09-24T08:07:54;10.35;;;2.80;;
67063;SDS011;58476;48.072;11.970;2022-09-24T08:10:21;8.75;;;2.50;;
67063;SDS011;58476;48.072;11.970;2022-09-24T08:12:47;9.43;;;3.20;;
67063;SDS011;58476;48.072;11.970;2022-09-24T08:15:12;8.95;;;3.28;;
67063;SDS011;58476;48.072;11.970;2022-09-24T08:17:38;10.63;;;3.80;;
67063;SDS011;58476;48.072;11.970;2022-09-24T08:20:03;11.13;;;4.65;;
67063;SDS011;58476;48.072;11.970;2022-09-24T08:22:29;11.60;;;4.30;;
67063;SDS011;58476;48.072;11.970;2022-09-24T08:24:55;9.20;;;4.38;;
67063;SDS011;58476;48.072;11.970;2022-09-24T08:27:20;13.60;;;3.95;;
67063;SDS011;58476;48.072;11.970;2022-09-24T08:29:45;8.10;;;3.85;;
67063;SDS011;58476;48.072;11.970;2022-09-24T08:32:11;6.38;;;3.20;;
67063;SDS011;58476;48.072;11.970;2022-09-24T08:34:36;8.23;;;3.78;;
67063;SDS011;58476;48.072;11.970;2022-09-24T08:40:30;9.43;;;3.20;;
67063;SDS011;58476;48.072;11.970;2022-09-24T08:45:54;11.90;;;3.28;;
67063;SDS011;58476;48.072;11.970;2022-09-24T08:48:23;10.82;;;3.60;;
67063;SDS011;58476;48.072;11.970;2022-09-24T08:50:52;7.05;;;2.80;;
67063;SDS011;58476;48.072;11.970;2022-09-24T08:53:21;9.18;;;3.13;;
67063;SDS011;58476;48.072;11.970;2022-09-24T08:55:54;8.57;;;3.30;;
67063;SDS011;58476;48.072;11.970;2022-09-24T09:01:19;5.50;;;2.88;;
67063;SDS011;58476;48.072;11.970;2022-09-24T09:06:45;5.25;;;2.63;;
67063;SDS011;58476;48.072;11.970;2022-09-24T09:09:22;7.93;;;3.35;;
67063;SDS011;58476;48.072;11.970;2022-09-24T09:12:01;8.60;;;3.40;;
67063;SDS011;58476;48.072;11.970;2022-09-24T09:17:33;11.40;;;4.32;;
67063;SDS011;58476;48.072;11.970;2022-09-24T09:20:06;13.85;;;4.00;;
67063;SDS011;58476;48.072;11.970;2022-09-24T09:22:41;11.00;;;3.72;;
67063;SDS011;58476;48.072;11.970;2022-09-24T09:25:18;17.55;;;3.78;;
67063;SDS011;58476;48.072;11.970;2022-09-24T09:27:45;8.90;;;3.10;;
67063;SDS011;58476;48.072;11.970;2022-09-24T09:30:37;9.23;;;3.13;;
67063;SDS011;58476;48.072;11.970;2022-09-24T09:35:40;8.32;;;3.10;;
67063;SDS011;58476;48.072;11.970;2022-09-24T09:40:56;10.38;;;2.90;;
67063;SDS011;58476;48.072;11.970;2022-09-24T09:43:26;5.03;;;2.47;;
67063;SDS011;58476;48.072;11.970;2022-09-24T09:46:00;7.25;;;3.05;;
67063;SDS011;58476;48.072;11.970;2022-09-24T09:48:38;8.45;;;3.00;;
67063;SDS011;58476;48.072;11.970;2022-09-24T09:51:08;6.55;;;2.42;;
67063;SDS011;58476;48.072;11.970;2022-09-24T09:53:40;6.97;;;2.60;;
67063;SDS011;58476;48.072;11.970;2022-09-24T09:56:17;7.35;;;2.72;;
67063;SDS011;58476;48.072;11.970;2022-09-24T09:58:48;7.60;;;2.47;;
67063;SDS011;58476;48.072;11.970;2022-09-24T10:01:14;7.10;;;2.65;;
67063;SDS011;58476;48.072;11.970;2022-09-24T10:06:13;6.93;;;2.75;;
67063;SDS011;58476;48.072;11.970;2022-09-24T10:09:32;7.45;;;3.05;;
67063;SDS011;58476;48.072;11.970;2022-09-24T10:11:50;9.43;;;3.00;;
67063;SDS011;58476;48.072;11.970;2022-09-24T10:14:16;12.75;;;2.90;;
67063;SDS011;58476;48.072;11.970;2022-09-24T10:16:42;4.10;;;2.75;;
67063;SDS011;58476;48.072;11.970;2022-09-24T10:19:18;6.72;;;2.53;;
67063;SDS011;58476;48.072;11.970;2022-09-24T10:21:46;7.45;;;2.78;;
67063;SDS011;58476;48.072;11.970;2022-09-24T10:24:16;13.40;;;2.83;;
67063;SDS011;58476;48.072;11.970;2022-09-24T10:26:45;10.13;;;2.63;;
67063;SDS011;58476;48.072;11.970;2022-09-24T10:29:17;11.13;;;2.63;;
67063;SDS011;58476;48.072;11.970;2022-09-24T10:31:45;5.00;;;2.30;;
67063;SDS011;58476;48.072;11.970;2022-09-24T10:34:18;6.97;;;2.83;;
67063;SDS011;58476;48.072;11.970;2022-09-24T10:36:52;6.68;;;2.58;;
67063;SDS011;58476;48.072;11.970;2022-09-24T10:39:23;9.35;;;2.50;;
67063;SDS011;58476;48.072;11.970;2022-09-24T10:41:52;6.97;;;2.50;;
67063;SDS011;58476;48.072;11.970;2022-09-24T10:44:19;15.93;;;2.60;;
67063;SDS011;58476;48.072;11.970;2022-09-24T10:49:39;9.30;;;2.40;;
67063;SDS011;58476;48.072;11.970;2022-09-24T11:17:29;11.88;;;2.38;;
67063;SDS011;58476;48.072;11.970;2022-09-24T11:22:58;10.63;;;2.25;;
67063;SDS011;58476;48.072;11.970;2022-09-24T11:28:43;4.43;;;1.95;;
67063;SDS011;58476;48.072;11.970;2022-09-24T11:31:21;9.02;;;1.80;;
67063;SDS011;58476;48.072;11.970;2022-09-24T11:34:12;7.90;;;2.15;;
67063;SDS011;58476;48.072;11.970;2022-09-24T11:53:56;6.82;;;1.65;;
67063;SDS011;58476;48.072;11.970;2022-09-24T11:56:30;8.80;;;2.15;;
67063;SDS011;58476;48.072;11.970;2022-09-24T12:02:22;4.60;;;2.00;;
67063;SDS011;58476;48.072;11.970;2022-09-24T12:05:24;9.02;;;1.83;;
67063;SDS011;58476;48.072;11.970;2022-09-24T12:08:01;6.82;;;1.77;;
67063;SDS011;58476;48.072;11.970;2022-09-24T12:10:44;4.38;;;2.00;;
67063;SDS011;58476;48.072;11.970;2022-09-24T12:13:21;6.15;;;1.70;;
67063;SDS011;58476;48.072;11.970;2022-09-24T12:18:28;6.72;;;1.83;;
67063;SDS011;58476;48.072;11.970;2022-09-24T12:21:00;7.43;;;2.00;;
67063;SDS011;58476;48.072;11.970;2022-09-24T12:23:31;11.77;;;2.17;;
67063;SDS011;58476;48.072;11.970;2022-09-24T12:26:02;7.47;;;1.92;;
67063;SDS011;58476;48.072;11.970;2022-09-24T12:28:31;7.80;;;2.55;;
67063;SDS011;58476;48.072;11.970;2022-09-24T12:31:16;4.70;;;1.73;;
67063;SDS011;58476;48.072;11.970;2022-09-24T12:33:57;4.45;;;1.70;;
67063;SDS011;58476;48.072;11.970;2022-09-24T12:39:11;5.90;;;1.90;;
67063;SDS011;58476;48.072;11.970;2022-09-24T12:41:42;7.45;;;1.73;;
67063;SDS011;58476;48.072;11.970;2022-09-24T12:51:53;5.72;;;1.77;;
67063;SDS011;58476;48.072;11.970;2022-09-24T13:02:30;5.22;;;2.17;;
67063;SDS011;58476;48.072;11.970;2022-09-24T13:07:54;4.30;;;1.98;;
67063;SDS011;58476;48.072;11.970;2022-09-24T13:10:25;7.32;;;1.88;;
67063;SDS011;58476;48.072;11.970;2022-09-24T13:12:56;4.40;;;1.70;;
67063;SDS011;58476;48.072;11.970;2022-09-24T13:15:34;8.13;;;1.75;;
67063;SDS011;58476;48.072;11.970;2022-09-24T13:18:02;6.85;;;1.95;;
67063;SDS011;58476;48.072;11.970;2022-09-24T13:20:33;7.85;;;2.17;;
67063;SDS011;58476;48.072;11.970;2022-09-24T13:23:27;7.72;;;2.20;;
67063;SDS011;58476;48.072;11.970;2022-09-24T13:25:59;10.65;;;2.47;;
67063;SDS011;58476;48.072;11.970;2022-09-24T13:28:27;7.68;;;2.20;;
67063;SDS011;58476;48.072;11.970;2022-09-24T13:33:52;7.20;;;2.20;;
67063;SDS011;58476;48.072;11.970;2022-09-24T13:36:25;17.73;;;2.83;;
67063;SDS011;58476;48.072;11.970;2022-09-24T13:39:02;7.00;;;2.25;;
67063;SDS011;58476;48.072;11.970;2022-09-24T13:41:41;6.90;;;2.33;;
67063;SDS011;58476;48.072;11.970;2022-09-24T13:44:23;12.13;;;2.20;;
67063;SDS011;58476;48.072;11.970;2022-09-24T13:46:57;10.57;;;1.92;;
67063;SDS011;58476;48.072;11.970;2022-09-24T13:49:28;5.82;;;2.10;;
67063;SDS011;58476;48.072;11.970;2022-09-24T13:52:04;10.63;;;2.25;;
67063;SDS011;58476;48.072;11.970;2022-09-24T13:54:37;10.90;;;2.50;;
67063;SDS011;58476;48.072;11.970;2022-09-24T13:57:13;10.02;;;2.28;;
67063;SDS011;58476;48.072;11.970;2022-09-24T13:59:45;10.82;;;2.08;;
67063;SDS011;58476;48.072;11.970;2022-09-24T14:02:24;10.00;;;2.17;;
67063;SDS011;58476;48.072;11.970;2022-09-24T14:04:54;8.43;;;2.10;;
67063;SDS011;58476;48.072;11.970;2022-09-24T14:07:21;5.55;;;1.85;;
67063;SDS011;58476;48.072;11.970;2022-09-24T14:09:47;14.20;;;2.05;;
67063;SDS011;58476;48.072;11.970;2022-09-24T14:12:15;9.88;;;1.88;;
67063;SDS011;58476;48.072;11.970;2022-09-24T14:14:42;9.30;;;2.40;;
67063;SDS011;58476;48.072;11.970;2022-09-24T14:17:11;9.15;;;2.33;;
67063;SDS011;58476;48.072;11.970;2022-09-24T14:19:38;10.43;;;2.30;;
67063;SDS011;58476;48.072;11.970;2022-09-24T14:22:03;10.85;;;2.20;;
67063;SDS011;58476;48.072;11.970;2022-09-24T14:24:39;11.27;;;2.25;;
67063;SDS011;58476;48.072;11.970;2022-09-24T14:27:12;10.55;;;2.17;;
67063;SDS011;58476;48.072;11.970;2022-09-24T14:29:45;14.05;;;3.17;;
67063;SDS011;58476;48.072;11.970;2022-09-24T14:32:25;11.35;;;2.10;;
67063;SDS011;58476;48.072;11.970;2022-09-24T14:35:15;7.85;;;2.10;;
67063;SDS011;58476;48.072;11.970;2022-09-24T14:37:45;5.80;;;1.90;;
67063;SDS011;58476;48.072;11.970;2022-09-24T14:40:23;7.30;;;1.90;;
67063;SDS011;58476;48.072;11.970;2022-09-24T14:42:56;9.52;;;2.58;;
67063;SDS011;58476;48.072;11.970;2022-09-24T14:45:29;5.20;;;1.75;;
67063;SDS011;58476;48.072;11.970;2022-09-24T14:48:04;8.50;;;2.10;;
67063;SDS011;58476;48.072;11.970;2022-09-24T14:50:41;7.80;;;2.05;;
67063;SDS011;58476;48.072;11.970;2022-09-24T14:53:17;13.07;;;2.63;;
67063;SDS011;58476;48.072;11.970;2022-09-24T14:58:23;6.40;;;2.03;;
67063;SDS011;58476;48.072;11.970;2022-09-24T15:00:54;9.43;;;2.38;;
67063;SDS011;58476;48.072;11.970;2022-09-24T15:04:14;9.32;;;2.08;;
67063;SDS011;58476;48.072;11.970;2022-09-24T15:06:22;8.50;;;2.10;;
67063;SDS011;58476;48.072;11.970;2022-09-24T15:08:54;9.55;;;2.17;;
67063;SDS011;58476;48.072;11.970;2022-09-24T15:11:22;6.32;;;1.92;;
67063;SDS011;58476;48.072;11.970;2022-09-24T15:13:56;10.93;;;3.67;;
67063;SDS011;58476;48.072;11.970;2022-09-24T15:18:57;6.60;;;1.95;;
67063;SDS011;58476;48.072;11.970;2022-09-24T15:21:37;8.38;;;1.90;;
67063;SDS011;58476;48.072;11.970;2022-09-24T15:24:02;7.80;;;2.20;;
67063;SDS011;58476;48.072;11.970;2022-09-24T15:26:29;9.98;;;2.40;;
67063;SDS011;58476;48.072;11.970;2022-09-24T15:28:59;4.72;;;1.80;;
67063;SDS011;58476;48.072;11.970;2022-09-24T15:31:26;6.53;;;1.98;;
67063;SDS011;58476;48.072;11.970;2022-09-24T15:33:52;9.20;;;2.38;;
67063;SDS011;58476;48.072;11.970;2022-09-24T15:36:17;9.20;;;2.40;;
67063;SDS011;58476;48.072;11.970;2022-09-24T15:38:43;8.20;;;1.92;;
67063;SDS011;58476;48.072;11.970;2022-09-24T15:41:09;10.57;;;2.47;;
67063;SDS011;58476;48.072;11.970;2022-09-24T15:43:35;11.68;;;2.60;;
67063;SDS011;58476;48.072;11.970;2022-09-24T15:46:00;15.48;;;2.90;;
67063;SDS011;58476;48.072;11.970;2022-09-24T15:48:25;13.40;;;3.30;;
67063;SDS011;58476;48.072;11.970;2022-09-24T15:50:51;7.47;;;2.50;;
67063;SDS011;58476;48.072;11.970;2022-09-24T15:53:20;12.75;;;2.63;;
67063;SDS011;58476;48.072;11.970;2022-09-24T15:55:47;7.07;;;2.85;;
67063;SDS011;58476;48.072;11.970;2022-09-24T15:58:16;9.30;;;2.63;;
67063;SDS011;58476;48.072;11.970;2022-09-24T16:00:41;6.30;;;3.00;;
67063;SDS011;58476;48.072;11.970;2022-09-24T16:03:16;8.15;;;2.90;;
67063;SDS011;58476;48.072;11.970;2022-09-24T16:05:49;6.78;;;2.90;;
67063;SDS011;58476;48.072;11.970;2022-09-24T16:08:15;6.93;;;2.80;;
67063;SDS011;58476;48.072;11.970;2022-09-24T16:10:40;8.60;;;2.80;;
67063;SDS011;58476;48.072;11.970;2022-09-24T16:13:06;12.85;;;3.20;;
67063;SDS011;58476;48.072;11.970;2022-09-24T16:15:32;11.00;;;3.03;;
67063;SDS011;58476;48.072;11.970;2022-09-24T16:17:58;5.35;;;2.70;;
67063;SDS011;58476;48.072;11.970;2022-09-24T16:20:23;5.10;;;2.40;;
67063;SDS011;58476;48.072;11.970;2022-09-24T16:22:49;16.10;;;4.75;;
67063;SDS011;58476;48.072;11.970;2022-09-24T16:25:14;10.65;;;2.78;;
67063;SDS011;58476;48.072;11.970;2022-09-24T16:27:40;9.88;;;3.10;;
67063;SDS011;58476;48.072;11.970;2022-09-24T16:30:05;8.25;;;2.75;;
67063;SDS011;58476;48.072;11.970;2022-09-24T16:32:31;7.78;;;2.80;;
67063;SDS011;58476;48.072;11.970;2022-09-24T16:34:56;7.53;;;2.80;;
67063;SDS011;58476;48.072;11.970;2022-09-24T16:37:22;4.05;;;2.47;;
67063;SDS011;58476;48.072;11.970;2022-09-24T16:39:48;6.80;;;2.67;;
67063;SDS011;58476;48.072;11.970;2022-09-24T16:42:14;7.38;;;2.45;;
67063;SDS011;58476;48.072;11.970;2022-09-24T16:44:39;4.30;;;2.47;;
67063;SDS011;58476;48.072;11.970;2022-09-24T16:47:05;4.55;;;2.50;;
67063;SDS011;58476;48.072;11.970;2022-09-24T16:49:30;7.60;;;2.67;;
67063;SDS011;58476;48.072;11.970;2022-09-24T16:51:55;4.05;;;2.42;;